sensor_id;sensor_type;location;lat;lon;timestamp;P1;durP1;ratioP1;P2;durP2;ratioP2
1567;SDS011;777;47.156;8.326;2023-08-06T00:01:10;2.92;;;2.00;;
1567;SDS011;777;47.156;8.326;2023-08-06T00:03:37;2.00;;;1.70;;
1567;SDS011;777;47.156;8.326;2023-08-06T00:06:04;3.03;;;1.60;;
1567;SDS011;777;47.156;8.326;2023-08-06T00:08:32;3.55;;;1.50;;
1567;SDS011;777;47.156;8.326;2023-08-06T00:11:00;2.90;;;1.65;;
1567;SDS011;777;47.156;8.326;2023-08-06T00:13:27;2.10;;;1.60;;
1567;SDS011;777;47.156;8.326;2023-08-06T00:15:54;3.33;;;1.70;;
1567;SDS011;777;47.156;8.326;2023-08-06T00:18:21;2.35;;;1.50;;
1567;SDS011;777;47.156;8.326;2023-08-06T00:20:48;3.03;;;1.80;;
1567;SDS011;777;47.156;8.326;2023-08-06T00:23:15;5.55;;;1.70;;
1567;SDS011;777;47.156;8.326;2023-08-06T00:25:43;3.42;;;1.60;;
1567;SDS011;777;47.156;8.326;2023-08-06T00:28:11;2.20;;;1.50;;
1567;SDS011;777;47.156;8.326;2023-08-06T00:30:38;3.90;;;1.55;;
1567;SDS011;777;47.156;8.326;2023-08-06T00:33:05;2.97;;;1.63;;
1567;SDS011;777;47.156;8.326;2023-08-06T00:35:32;2.45;;;1.50;;
1567;SDS011;777;47.156;8.326;2023-08-06T00:37:59;3.25;;;1.50;;
1567;SDS011;777;47.156;8.326;2023-08-06T00:40:26;2.95;;;1.50;;
1567;SDS011;777;47.156;8.326;2023-08-06T00:42:54;3.92;;;1.42;;
1567;SDS011;777;47.156;8.326;2023-08-06T00:45:22;2.85;;;1.30;;
1567;SDS011;777;47.156;8.326;2023-08-06T00:47:50;2.65;;;1.45;;
1567;SDS011;777;47.156;8.326;2023-08-06T00:50:18;1.75;;;1.17;;
1567;SDS011;777;47.156;8.326;2023-08-06T00:52:46;2.95;;;1.30;;
1567;SDS011;777;47.156;8.326;2023-08-06T00:55:13;2.90;;;1.50;;
1567;SDS011;777;47.156;8.326;2023-08-06T00:57:41;1.75;;;1.23;;
1567;SDS011;777;47.156;8.326;2023-08-06T01:00:08;2.38;;;1.58;;
1567;SDS011;777;47.156;8.326;2023-08-06T01:02:38;2.10;;;1.38;;
1567;SDS011;777;47.156;8.326;2023-08-06T01:05:05;1.98;;;1.50;;
1567;SDS011;777;47.156;8.326;2023-08-06T01:07:37;2.42;;;1.45;;
1567;SDS011;777;47.156;8.326;2023-08-06T01:10:15;2.03;;;1.50;;
1567;SDS011;777;47.156;8.326;2023-08-06T01:12:51;2.55;;;1.65;;
1567;SDS011;777;47.156;8.326;2023-08-06T01:15:28;3.72;;;1.55;;
1567;SDS011;777;47.156;8.326;2023-08-06T01:18:00;3.45;;;1.90;;
1567;SDS011;777;47.156;8.326;2023-08-06T01:20:29;2.03;;;1.33;;
1567;SDS011;777;47.156;8.326;2023-08-06T01:22:57;2.00;;;1.40;;
1567;SDS011;777;47.156;8.326;2023-08-06T01:25:25;2.95;;;1.65;;
1567;SDS011;777;47.156;8.326;2023-08-06T01:27:57;2.22;;;1.40;;
1567;SDS011;777;47.156;8.326;2023-08-06T01:30:35;3.35;;;1.50;;
1567;SDS011;777;47.156;8.326;2023-08-06T01:33:08;2.30;;;1.30;;
1567;SDS011;777;47.156;8.326;2023-08-06T01:35:41;2.70;;;1.52;;
1567;SDS011;777;47.156;8.326;2023-08-06T01:38:09;2.17;;;1.30;;
1567;SDS011;777;47.156;8.326;2023-08-06T01:40:36;3.45;;;1.65;;
1567;SDS011;777;47.156;8.326;2023-08-06T01:43:03;2.03;;;1.30;;
1567;SDS011;777;47.156;8.326;2023-08-06T01:45:30;1.98;;;1.30;;
1567;SDS011;777;47.156;8.326;2023-08-06T01:47:57;1.92;;;1.30;;
1567;SDS011;777;47.156;8.326;2023-08-06T01:50:24;1.83;;;1.20;;
1567;SDS011;777;47.156;8.326;2023-08-06T01:52:52;1.90;;;1.40;;
1567;SDS011;777;47.156;8.326;2023-08-06T01:55:19;2.35;;;1.65;;
1567;SDS011;777;47.156;8.326;2023-08-06T01:57:46;2.90;;;1.40;;
1567;SDS011;777;47.156;8.326;2023-08-06T02:00:13;1.70;;;1.30;;
1567;SDS011;777;47.156;8.326;2023-08-06T02:02:40;3.08;;;1.42;;
1567;SDS011;777;47.156;8.326;2023-08-06T02:05:08;1.95;;;1.25;;
1567;SDS011;777;47.156;8.326;2023-08-06T02:07:37;2.08;;;1.40;;
1567;SDS011;777;47.156;8.326;2023-08-06T02:10:06;1.45;;;1.15;;
1567;SDS011;777;47.156;8.326;2023-08-06T02:12:34;2.45;;;1.40;;
1567;SDS011;777;47.156;8.326;2023-08-06T02:15:01;2.45;;;1.33;;
1567;SDS011;777;47.156;8.326;2023-08-06T02:17:28;3.13;;;1.55;;
1567;SDS011;777;47.156;8.326;2023-08-06T02:19:55;2.33;;;1.27;;
1567;SDS011;777;47.156;8.326;2023-08-06T02:22:22;2.78;;;1.67;;
1567;SDS011;777;47.156;8.326;2023-08-06T02:24:49;2.00;;;1.40;;
1567;SDS011;777;47.156;8.326;2023-08-06T02:27:17;2.53;;;1.55;;
1567;SDS011;777;47.156;8.326;2023-08-06T02:29:44;2.58;;;1.42;;
1567;SDS011;777;47.156;8.326;2023-08-06T02:32:12;2.22;;;1.30;;
1567;SDS011;777;47.156;8.326;2023-08-06T02:34:39;2.70;;;1.20;;
1567;SDS011;777;47.156;8.326;2023-08-06T02:37:06;1.90;;;1.38;;
1567;SDS011;777;47.156;8.326;2023-08-06T02:39:33;4.97;;;1.40;;
1567;SDS011;777;47.156;8.326;2023-08-06T02:42:01;3.13;;;1.65;;
1567;SDS011;777;47.156;8.326;2023-08-06T02:44:32;2.67;;;1.42;;
1567;SDS011;777;47.156;8.326;2023-08-06T02:46:59;2.90;;;1.55;;
1567;SDS011;777;47.156;8.326;2023-08-06T02:49:26;2.92;;;1.70;;
1567;SDS011;777;47.156;8.326;2023-08-06T02:51:54;4.78;;;1.58;;
1567;SDS011;777;47.156;8.326;2023-08-06T02:54:22;3.20;;;1.70;;
1567;SDS011;777;47.156;8.326;2023-08-06T02:56:49;2.42;;;1.40;;
1567;SDS011;777;47.156;8.326;2023-08-06T02:59:22;5.10;;;1.63;;
1567;SDS011;777;47.156;8.326;2023-08-06T03:02:05;2.45;;;1.40;;
1567;SDS011;777;47.156;8.326;2023-08-06T03:04:47;2.40;;;1.20;;
1567;SDS011;777;47.156;8.326;2023-08-06T03:07:15;3.08;;;1.40;;
1567;SDS011;777;47.156;8.326;2023-08-06T03:09:52;3.67;;;1.55;;
1567;SDS011;777;47.156;8.326;2023-08-06T03:12:19;2.25;;;1.60;;
1567;SDS011;777;47.156;8.326;2023-08-06T03:14:47;4.55;;;1.13;;
1567;SDS011;777;47.156;8.326;2023-08-06T03:17:17;2.15;;;1.33;;
1567;SDS011;777;47.156;8.326;2023-08-06T03:19:44;3.65;;;1.55;;
1567;SDS011;777;47.156;8.326;2023-08-06T03:22:11;1.70;;;1.15;;
1567;SDS011;777;47.156;8.326;2023-08-06T03:24:39;3.17;;;1.50;;
1567;SDS011;777;47.156;8.326;2023-08-06T03:27:07;4.97;;;1.40;;
1567;SDS011;777;47.156;8.326;2023-08-06T03:29:36;2.33;;;1.50;;
1567;SDS011;777;47.156;8.326;2023-08-06T03:32:03;3.25;;;1.20;;
1567;SDS011;777;47.156;8.326;2023-08-06T03:34:33;2.20;;;1.33;;
1567;SDS011;777;47.156;8.326;2023-08-06T03:37:01;2.22;;;1.30;;
1567;SDS011;777;47.156;8.326;2023-08-06T03:39:28;2.17;;;1.30;;
1567;SDS011;777;47.156;8.326;2023-08-06T03:41:55;2.75;;;1.40;;
1567;SDS011;777;47.156;8.326;2023-08-06T03:44:22;3.22;;;1.30;;
1567;SDS011;777;47.156;8.326;2023-08-06T03:46:50;2.38;;;1.42;;
1567;SDS011;777;47.156;8.326;2023-08-06T03:49:17;1.90;;;1.30;;
1567;SDS011;777;47.156;8.326;2023-08-06T03:51:46;2.85;;;1.20;;
1567;SDS011;777;47.156;8.326;2023-08-06T03:54:13;3.05;;;1.30;;
1567;SDS011;777;47.156;8.326;2023-08-06T03:56:40;1.92;;;1.10;;
1567;SDS011;777;47.156;8.326;2023-08-06T03:59:07;2.97;;;1.40;;
1567;SDS011;777;47.156;8.326;2023-08-06T04:01:34;2.78;;;1.20;;
1567;SDS011;777;47.156;8.326;2023-08-06T04:04:02;3.17;;;1.42;;
1567;SDS011;777;47.156;8.326;2023-08-06T04:06:29;3.63;;;1.20;;
1567;SDS011;777;47.156;8.326;2023-08-06T04:08:57;2.63;;;1.10;;
1567;SDS011;777;47.156;8.326;2023-08-06T04:11:24;2.15;;;1.00;;
1567;SDS011;777;47.156;8.326;2023-08-06T04:13:52;2.30;;;1.20;;
1567;SDS011;777;47.156;8.326;2023-08-06T04:16:20;5.38;;;1.25;;
1567;SDS011;777;47.156;8.326;2023-08-06T04:18:47;2.45;;;1.27;;
1567;SDS011;777;47.156;8.326;2023-08-06T04:21:14;2.58;;;1.17;;
1567;SDS011;777;47.156;8.326;2023-08-06T04:23:41;2.28;;;1.40;;
1567;SDS011;777;47.156;8.326;2023-08-06T04:26:10;2.45;;;1.30;;
1567;SDS011;777;47.156;8.326;2023-08-06T04:28:37;2.80;;;1.30;;
1567;SDS011;777;47.156;8.326;2023-08-06T04:31:05;4.53;;;1.20;;
1567;SDS011;777;47.156;8.326;2023-08-06T04:33:33;1.98;;;1.00;;
1567;SDS011;777;47.156;8.326;2023-08-06T04:36:06;1.92;;;0.98;;
1567;SDS011;777;47.156;8.326;2023-08-06T04:38:33;1.73;;;0.90;;
1567;SDS011;777;47.156;8.326;2023-08-06T04:41:01;1.85;;;0.85;;
1567;SDS011;777;47.156;8.326;2023-08-06T04:43:30;2.72;;;1.13;;
1567;SDS011;777;47.156;8.326;2023-08-06T04:45:57;2.35;;;1.17;;
1567;SDS011;777;47.156;8.326;2023-08-06T04:48:24;4.22;;;1.15;;
1567;SDS011;777;47.156;8.326;2023-08-06T04:50:51;2.65;;;1.30;;
1567;SDS011;777;47.156;8.326;2023-08-06T04:53:18;4.32;;;1.80;;
1567;SDS011;777;47.156;8.326;2023-08-06T04:55:45;5.20;;;1.50;;
1567;SDS011;777;47.156;8.326;2023-08-06T04:58:13;3.55;;;1.52;;
1567;SDS011;777;47.156;8.326;2023-08-06T05:00:41;3.15;;;1.30;;
1567;SDS011;777;47.156;8.326;2023-08-06T05:03:08;5.18;;;1.42;;
1567;SDS011;777;47.156;8.326;2023-08-06T05:05:35;4.03;;;1.40;;
1567;SDS011;777;47.156;8.326;2023-08-06T05:08:02;3.83;;;1.52;;
1567;SDS011;777;47.156;8.326;2023-08-06T05:10:29;2.40;;;1.13;;
1567;SDS011;777;47.156;8.326;2023-08-06T05:12:57;5.03;;;1.95;;
1567;SDS011;777;47.156;8.326;2023-08-06T05:15:24;4.40;;;1.55;;
1567;SDS011;777;47.156;8.326;2023-08-06T05:17:53;5.60;;;1.55;;
1567;SDS011;777;47.156;8.326;2023-08-06T05:20:20;3.00;;;1.45;;
1567;SDS011;777;47.156;8.326;2023-08-06T05:22:47;4.35;;;1.08;;
1567;SDS011;777;47.156;8.326;2023-08-06T05:25:14;2.22;;;0.75;;
1567;SDS011;777;47.156;8.326;2023-08-06T05:27:41;2.60;;;0.93;;
1567;SDS011;777;47.156;8.326;2023-08-06T05:30:09;6.85;;;0.90;;
1567;SDS011;777;47.156;8.326;2023-08-06T05:32:36;2.53;;;0.90;;
1567;SDS011;777;47.156;8.326;2023-08-06T05:35:05;2.67;;;0.80;;
1567;SDS011;777;47.156;8.326;2023-08-06T05:37:33;2.40;;;0.70;;
1567;SDS011;777;47.156;8.326;2023-08-06T05:40:00;2.95;;;0.68;;
1567;SDS011;777;47.156;8.326;2023-08-06T05:42:27;3.35;;;1.38;;
1567;SDS011;777;47.156;8.326;2023-08-06T05:44:54;2.13;;;0.65;;
1567;SDS011;777;47.156;8.326;2023-08-06T05:47:21;4.90;;;0.88;;
1567;SDS011;777;47.156;8.326;2023-08-06T05:49:48;2.80;;;0.90;;
1567;SDS011;777;47.156;8.326;2023-08-06T05:52:16;5.00;;;1.00;;
1567;SDS011;777;47.156;8.326;2023-08-06T05:54:43;3.45;;;0.95;;
1567;SDS011;777;47.156;8.326;2023-08-06T05:57:10;2.17;;;0.60;;
1567;SDS011;777;47.156;8.326;2023-08-06T05:59:37;2.83;;;0.80;;
1567;SDS011;777;47.156;8.326;2023-08-06T06:02:05;2.72;;;0.80;;
1567;SDS011;777;47.156;8.326;2023-08-06T06:04:32;3.90;;;0.93;;
1567;SDS011;777;47.156;8.326;2023-08-06T06:06:59;2.65;;;0.60;;
1567;SDS011;777;47.156;8.326;2023-08-06T06:09:27;2.25;;;0.65;;
1567;SDS011;777;47.156;8.326;2023-08-06T06:11:54;4.15;;;0.88;;
1567;SDS011;777;47.156;8.326;2023-08-06T06:14:21;3.15;;;0.90;;
1567;SDS011;777;47.156;8.326;2023-08-06T06:16:48;1.65;;;0.60;;
1567;SDS011;777;47.156;8.326;2023-08-06T06:19:15;5.90;;;1.25;;
1567;SDS011;777;47.156;8.326;2023-08-06T06:21:42;4.32;;;0.85;;
1567;SDS011;777;47.156;8.326;2023-08-06T06:24:09;3.17;;;0.93;;
1567;SDS011;777;47.156;8.326;2023-08-06T06:26:38;2.88;;;0.52;;
1567;SDS011;777;47.156;8.326;2023-08-06T06:29:05;4.78;;;0.93;;
1567;SDS011;777;47.156;8.326;2023-08-06T06:31:32;3.75;;;0.60;;
1567;SDS011;777;47.156;8.326;2023-08-06T06:33:59;3.40;;;0.57;;
1567;SDS011;777;47.156;8.326;2023-08-06T06:36:26;3.15;;;0.60;;
1567;SDS011;777;47.156;8.326;2023-08-06T06:38:53;3.90;;;0.70;;
1567;SDS011;777;47.156;8.326;2023-08-06T06:41:20;2.85;;;0.70;;
1567;SDS011;777;47.156;8.326;2023-08-06T06:43:48;1.85;;;0.73;;
1567;SDS011;777;47.156;8.326;2023-08-06T06:46:15;2.58;;;0.50;;
1567;SDS011;777;47.156;8.326;2023-08-06T06:48:42;2.75;;;0.57;;
1567;SDS011;777;47.156;8.326;2023-08-06T06:51:10;1.60;;;0.40;;
1567;SDS011;777;47.156;8.326;2023-08-06T06:53:37;3.78;;;0.57;;
1567;SDS011;777;47.156;8.326;2023-08-06T06:56:04;2.60;;;0.70;;
1567;SDS011;777;47.156;8.326;2023-08-06T06:58:32;2.38;;;0.50;;
1567;SDS011;777;47.156;8.326;2023-08-06T07:01:00;3.20;;;0.38;;
1567;SDS011;777;47.156;8.326;2023-08-06T07:03:27;1.83;;;0.40;;
1567;SDS011;777;47.156;8.326;2023-08-06T07:05:57;3.22;;;0.60;;
1567;SDS011;777;47.156;8.326;2023-08-06T07:08:25;4.32;;;0.40;;
1567;SDS011;777;47.156;8.326;2023-08-06T07:10:59;2.05;;;0.50;;
1567;SDS011;777;47.156;8.326;2023-08-06T07:13:27;4.45;;;0.60;;
1567;SDS011;777;47.156;8.326;2023-08-06T07:15:54;2.13;;;0.38;;
1567;SDS011;777;47.156;8.326;2023-08-06T07:18:23;1.70;;;0.40;;
1567;SDS011;777;47.156;8.326;2023-08-06T07:20:51;2.15;;;0.50;;
1567;SDS011;777;47.156;8.326;2023-08-06T07:23:20;0.88;;;0.20;;
1567;SDS011;777;47.156;8.326;2023-08-06T07:25:47;3.78;;;0.50;;
1567;SDS011;777;47.156;8.326;2023-08-06T07:28:14;1.50;;;0.50;;
1567;SDS011;777;47.156;8.326;2023-08-06T07:30:42;1.77;;;0.70;;
1567;SDS011;777;47.156;8.326;2023-08-06T07:33:10;1.45;;;0.47;;
1567;SDS011;777;47.156;8.326;2023-08-06T07:35:39;1.77;;;0.43;;
1567;SDS011;777;47.156;8.326;2023-08-06T07:38:06;1.83;;;0.50;;
1567;SDS011;777;47.156;8.326;2023-08-06T07:40:35;2.95;;;0.57;;
1567;SDS011;777;47.156;8.326;2023-08-06T07:43:02;1.23;;;0.40;;
1567;SDS011;777;47.156;8.326;2023-08-06T07:45:32;4.10;;;0.40;;
1567;SDS011;777;47.156;8.326;2023-08-06T07:48:00;3.22;;;1.20;;
1567;SDS011;777;47.156;8.326;2023-08-06T07:50:27;2.58;;;0.60;;
1567;SDS011;777;47.156;8.326;2023-08-06T07:52:55;6.93;;;1.05;;
1567;SDS011;777;47.156;8.326;2023-08-06T07:55:22;1.25;;;0.50;;
1567;SDS011;777;47.156;8.326;2023-08-06T07:57:49;3.70;;;0.80;;
1567;SDS011;777;47.156;8.326;2023-08-06T08:00:16;3.75;;;0.60;;
1567;SDS011;777;47.156;8.326;2023-08-06T08:02:44;2.28;;;0.57;;
1567;SDS011;777;47.156;8.326;2023-08-06T08:05:12;3.88;;;0.60;;
1567;SDS011;777;47.156;8.326;2023-08-06T08:07:39;5.00;;;0.60;;
1567;SDS011;777;47.156;8.326;2023-08-06T08:10:08;1.20;;;0.50;;
1567;SDS011;777;47.156;8.326;2023-08-06T08:12:35;3.40;;;1.13;;
1567;SDS011;777;47.156;8.326;2023-08-06T08:15:03;1.58;;;0.70;;
1567;SDS011;777;47.156;8.326;2023-08-06T08:17:30;3.20;;;0.63;;
1567;SDS011;777;47.156;8.326;2023-08-06T08:19:57;4.05;;;1.00;;
1567;SDS011;777;47.156;8.326;2023-08-06T08:22:24;2.33;;;0.85;;
1567;SDS011;777;47.156;8.326;2023-08-06T08:24:51;3.65;;;0.93;;
1567;SDS011;777;47.156;8.326;2023-08-06T08:27:20;3.70;;;1.00;;
1567;SDS011;777;47.156;8.326;2023-08-06T08:29:47;2.92;;;0.90;;
1567;SDS011;777;47.156;8.326;2023-08-06T08:32:14;2.00;;;0.63;;
1567;SDS011;777;47.156;8.326;2023-08-06T08:34:41;2.38;;;1.15;;
1567;SDS011;777;47.156;8.326;2023-08-06T08:37:08;2.47;;;0.80;;
1567;SDS011;777;47.156;8.326;2023-08-06T08:39:35;1.67;;;0.50;;
1567;SDS011;777;47.156;8.326;2023-08-06T08:42:02;1.33;;;0.50;;
1567;SDS011;777;47.156;8.326;2023-08-06T08:44:30;2.22;;;0.57;;
1567;SDS011;777;47.156;8.326;2023-08-06T08:46:58;3.92;;;0.63;;
1567;SDS011;777;47.156;8.326;2023-08-06T08:49:26;1.50;;;0.60;;
1567;SDS011;777;47.156;8.326;2023-08-06T08:51:55;1.58;;;0.40;;
1567;SDS011;777;47.156;8.326;2023-08-06T08:54:23;1.92;;;0.50;;
1567;SDS011;777;47.156;8.326;2023-08-06T08:56:51;3.17;;;0.70;;
1567;SDS011;777;47.156;8.326;2023-08-06T08:59:20;2.88;;;1.10;;
1567;SDS011;777;47.156;8.326;2023-08-06T09:01:48;2.08;;;0.68;;
1567;SDS011;777;47.156;8.326;2023-08-06T09:04:16;1.35;;;0.35;;
1567;SDS011;777;47.156;8.326;2023-08-06T09:06:44;1.75;;;0.40;;
1567;SDS011;777;47.156;8.326;2023-08-06T09:09:14;1.92;;;0.45;;
1567;SDS011;777;47.156;8.326;2023-08-06T09:11:48;1.80;;;0.40;;
1567;SDS011;777;47.156;8.326;2023-08-06T09:14:15;1.08;;;0.30;;
1567;SDS011;777;47.156;8.326;2023-08-06T09:16:43;1.15;;;0.38;;
1567;SDS011;777;47.156;8.326;2023-08-06T09:19:12;1.33;;;0.30;;
1567;SDS011;777;47.156;8.326;2023-08-06T09:21:42;2.67;;;0.38;;
1567;SDS011;777;47.156;8.326;2023-08-06T09:24:09;1.40;;;0.35;;
1567;SDS011;777;47.156;8.326;2023-08-06T09:26:37;1.45;;;0.35;;
1567;SDS011;777;47.156;8.326;2023-08-06T09:29:05;0.80;;;0.30;;
1567;SDS011;777;47.156;8.326;2023-08-06T09:31:33;1.42;;;0.20;;
1567;SDS011;777;47.156;8.326;2023-08-06T09:34:09;1.00;;;0.35;;
1567;SDS011;777;47.156;8.326;2023-08-06T09:36:42;0.70;;;0.23;;
1567;SDS011;777;47.156;8.326;2023-08-06T09:39:13;1.67;;;0.32;;
1567;SDS011;777;47.156;8.326;2023-08-06T09:41:40;1.17;;;0.30;;
1567;SDS011;777;47.156;8.326;2023-08-06T09:44:13;1.05;;;0.20;;
1567;SDS011;777;47.156;8.326;2023-08-06T09:46:47;2.85;;;0.43;;
1567;SDS011;777;47.156;8.326;2023-08-06T09:49:16;2.83;;;0.43;;
1567;SDS011;777;47.156;8.326;2023-08-06T09:51:44;1.52;;;0.57;;
1567;SDS011;777;47.156;8.326;2023-08-06T09:54:12;0.50;;;0.20;;
1567;SDS011;777;47.156;8.326;2023-08-06T09:56:40;0.63;;;0.30;;
1567;SDS011;777;47.156;8.326;2023-08-06T09:59:09;0.63;;;0.15;;
1567;SDS011;777;47.156;8.326;2023-08-06T10:01:36;0.47;;;0.20;;
1567;SDS011;777;47.156;8.326;2023-08-06T10:04:04;0.95;;;0.30;;
1567;SDS011;777;47.156;8.326;2023-08-06T10:06:35;2.83;;;0.40;;
1567;SDS011;777;47.156;8.326;2023-08-06T10:09:02;2.63;;;0.60;;
1567;SDS011;777;47.156;8.326;2023-08-06T10:11:30;3.15;;;0.90;;
1567;SDS011;777;47.156;8.326;2023-08-06T10:13:58;3.72;;;1.15;;
1567;SDS011;777;47.156;8.326;2023-08-06T10:16:30;6.53;;;1.63;;
1567;SDS011;777;47.156;8.326;2023-08-06T10:18:58;0.30;;;0.15;;
1567;SDS011;777;47.156;8.326;2023-08-06T10:21:26;0.95;;;0.17;;
1567;SDS011;777;47.156;8.326;2023-08-06T10:23:56;0.20;;;0.20;;
1567;SDS011;777;47.156;8.326;2023-08-06T10:26:25;0.47;;;0.10;;
1567;SDS011;777;47.156;8.326;2023-08-06T10:28:52;2.00;;;0.20;;
1567;SDS011;777;47.156;8.326;2023-08-06T10:31:20;0.28;;;0.10;;
1567;SDS011;777;47.156;8.326;2023-08-06T10:34:11;0.50;;;0.13;;
1567;SDS011;777;47.156;8.326;2023-08-06T10:36:44;0.20;;;0.10;;
1567;SDS011;777;47.156;8.326;2023-08-06T10:39:14;0.63;;;0.20;;
1567;SDS011;777;47.156;8.326;2023-08-06T10:41:41;0.40;;;0.10;;
1567;SDS011;777;47.156;8.326;2023-08-06T10:44:09;2.55;;;0.15;;
1567;SDS011;777;47.156;8.326;2023-08-06T10:46:38;0.50;;;0.10;;
1567;SDS011;777;47.156;8.326;2023-08-06T10:49:05;0.65;;;0.10;;
1567;SDS011;777;47.156;8.326;2023-08-06T10:51:32;0.45;;;0.17;;
1567;SDS011;777;47.156;8.326;2023-08-06T10:54:00;0.90;;;0.10;;
1567;SDS011;777;47.156;8.326;2023-08-06T10:56:28;0.73;;;0.20;;
1567;SDS011;777;47.156;8.326;2023-08-06T10:58:56;0.93;;;0.20;;
1567;SDS011;777;47.156;8.326;2023-08-06T11:01:23;0.43;;;0.10;;
1567;SDS011;777;47.156;8.326;2023-08-06T11:03:50;0.20;;;0.10;;
1567;SDS011;777;47.156;8.326;2023-08-06T11:06:18;0.22;;;0.10;;
1567;SDS011;777;47.156;8.326;2023-08-06T11:08:50;0.45;;;0.20;;
1567;SDS011;777;47.156;8.326;2023-08-06T11:11:18;0.25;;;0.10;;
1567;SDS011;777;47.156;8.326;2023-08-06T11:13:47;0.47;;;0.10;;
1567;SDS011;777;47.156;8.326;2023-08-06T11:16:15;0.10;;;0.10;;
1567;SDS011;777;47.156;8.326;2023-08-06T11:18:45;1.75;;;0.10;;
1567;SDS011;777;47.156;8.326;2023-08-06T11:21:12;0.65;;;0.10;;
1567;SDS011;777;47.156;8.326;2023-08-06T11:23:40;0.10;;;0.10;;
1567;SDS011;777;47.156;8.326;2023-08-06T11:26:07;0.47;;;0.10;;
1567;SDS011;777;47.156;8.326;2023-08-06T11:28:34;0.90;;;0.10;;
1567;SDS011;777;47.156;8.326;2023-08-06T11:31:03;0.90;;;0.20;;
1567;SDS011;777;47.156;8.326;2023-08-06T11:33:30;0.35;;;0.10;;
1567;SDS011;777;47.156;8.326;2023-08-06T11:35:58;0.30;;;0.10;;
1567;SDS011;777;47.156;8.326;2023-08-06T11:38:25;0.20;;;0.10;;
1567;SDS011;777;47.156;8.326;2023-08-06T11:40:53;1.52;;;0.20;;
1567;SDS011;777;47.156;8.326;2023-08-06T11:43:21;0.20;;;0.20;;
1567;SDS011;777;47.156;8.326;2023-08-06T11:45:49;0.60;;;0.20;;
1567;SDS011;777;47.156;8.326;2023-08-06T11:48:19;1.30;;;0.30;;
1567;SDS011;777;47.156;8.326;2023-08-06T11:50:46;0.75;;;0.28;;
1567;SDS011;777;47.156;8.326;2023-08-06T11:53:13;0.20;;;0.10;;
1567;SDS011;777;47.156;8.326;2023-08-06T11:55:41;1.30;;;0.20;;
1567;SDS011;777;47.156;8.326;2023-08-06T11:58:08;1.15;;;0.25;;
1567;SDS011;777;47.156;8.326;2023-08-06T12:00:36;0.43;;;0.10;;
1567;SDS011;777;47.156;8.326;2023-08-06T12:03:04;1.00;;;0.20;;
1567;SDS011;777;47.156;8.326;2023-08-06T12:05:33;0.32;;;0.15;;
1567;SDS011;777;47.156;8.326;2023-08-06T12:08:01;1.98;;;0.20;;
1567;SDS011;777;47.156;8.326;2023-08-06T12:10:30;1.58;;;0.30;;
1567;SDS011;777;47.156;8.326;2023-08-06T12:12:58;1.48;;;0.30;;
1567;SDS011;777;47.156;8.326;2023-08-06T12:15:26;0.70;;;0.30;;
1567;SDS011;777;47.156;8.326;2023-08-06T12:17:53;0.68;;;0.20;;
1567;SDS011;777;47.156;8.326;2023-08-06T12:20:20;0.30;;;0.17;;
1567;SDS011;777;47.156;8.326;2023-08-06T12:22:48;1.02;;;0.35;;
1567;SDS011;777;47.156;8.326;2023-08-06T12:25:15;1.67;;;0.30;;
1567;SDS011;777;47.156;8.326;2023-08-06T12:27:43;0.50;;;0.22;;
1567;SDS011;777;47.156;8.326;2023-08-06T12:30:11;0.85;;;0.30;;
1567;SDS011;777;47.156;8.326;2023-08-06T12:32:39;0.63;;;0.38;;
1567;SDS011;777;47.156;8.326;2023-08-06T12:35:06;0.82;;;0.20;;
1567;SDS011;777;47.156;8.326;2023-08-06T12:37:34;0.40;;;0.20;;
1567;SDS011;777;47.156;8.326;2023-08-06T12:40:05;1.10;;;0.30;;
1567;SDS011;777;47.156;8.326;2023-08-06T12:42:33;1.17;;;0.40;;
1567;SDS011;777;47.156;8.326;2023-08-06T12:45:00;1.00;;;0.28;;
1567;SDS011;777;47.156;8.326;2023-08-06T12:47:27;1.17;;;0.55;;
1567;SDS011;777;47.156;8.326;2023-08-06T12:49:54;4.50;;;0.40;;
1567;SDS011;777;47.156;8.326;2023-08-06T12:52:21;1.45;;;0.40;;
1567;SDS011;777;47.156;8.326;2023-08-06T12:54:48;1.30;;;0.22;;
1567;SDS011;777;47.156;8.326;2023-08-06T12:57:17;1.27;;;0.30;;
1567;SDS011;777;47.156;8.326;2023-08-06T12:59:44;0.50;;;0.20;;
1567;SDS011;777;47.156;8.326;2023-08-06T13:02:11;1.67;;;0.50;;
1567;SDS011;777;47.156;8.326;2023-08-06T13:04:38;4.47;;;0.40;;
1567;SDS011;777;47.156;8.326;2023-08-06T13:07:05;2.25;;;0.50;;
1567;SDS011;777;47.156;8.326;2023-08-06T13:09:32;0.80;;;0.30;;
1567;SDS011;777;47.156;8.326;2023-08-06T13:11:59;1.27;;;0.35;;
1567;SDS011;777;47.156;8.326;2023-08-06T13:14:32;0.60;;;0.20;;
1567;SDS011;777;47.156;8.326;2023-08-06T13:16:59;0.35;;;0.20;;
1567;SDS011;777;47.156;8.326;2023-08-06T13:19:27;0.20;;;0.10;;
1567;SDS011;777;47.156;8.326;2023-08-06T13:21:59;0.32;;;0.20;;
1567;SDS011;777;47.156;8.326;2023-08-06T13:24:28;0.20;;;0.20;;
1567;SDS011;777;47.156;8.326;2023-08-06T13:26:55;2.00;;;0.30;;
1567;SDS011;777;47.156;8.326;2023-08-06T13:29:22;1.05;;;0.20;;
1567;SDS011;777;47.156;8.326;2023-08-06T13:31:51;1.05;;;0.28;;
1567;SDS011;777;47.156;8.326;2023-08-06T13:34:18;1.88;;;0.20;;
1567;SDS011;777;47.156;8.326;2023-08-06T13:36:45;0.63;;;0.22;;
1567;SDS011;777;47.156;8.326;2023-08-06T13:39:12;0.47;;;0.30;;
1567;SDS011;777;47.156;8.326;2023-08-06T13:41:41;0.80;;;0.20;;
1567;SDS011;777;47.156;8.326;2023-08-06T13:44:08;0.60;;;0.22;;
1567;SDS011;777;47.156;8.326;2023-08-06T13:46:35;0.38;;;0.17;;
1567;SDS011;777;47.156;8.326;2023-08-06T13:49:04;1.35;;;0.30;;
1567;SDS011;777;47.156;8.326;2023-08-06T13:51:31;0.85;;;0.40;;
1567;SDS011;777;47.156;8.326;2023-08-06T13:53:59;3.28;;;0.65;;
1567;SDS011;777;47.156;8.326;2023-08-06T13:56:26;1.05;;;0.55;;
1567;SDS011;777;47.156;8.326;2023-08-06T13:58:54;0.82;;;0.45;;
1567;SDS011;777;47.156;8.326;2023-08-06T14:01:21;1.13;;;0.35;;
1567;SDS011;777;47.156;8.326;2023-08-06T14:03:49;0.65;;;0.40;;
1567;SDS011;777;47.156;8.326;2023-08-06T14:06:17;1.73;;;0.70;;
1567;SDS011;777;47.156;8.326;2023-08-06T14:08:44;2.13;;;0.40;;
1567;SDS011;777;47.156;8.326;2023-08-06T14:11:11;1.55;;;0.40;;
1567;SDS011;777;47.156;8.326;2023-08-06T14:13:38;0.90;;;0.30;;
1567;SDS011;777;47.156;8.326;2023-08-06T14:16:05;0.68;;;0.30;;
1567;SDS011;777;47.156;8.326;2023-08-06T14:18:33;0.35;;;0.20;;
1567;SDS011;777;47.156;8.326;2023-08-06T14:21:04;0.20;;;0.20;;
1567;SDS011;777;47.156;8.326;2023-08-06T14:23:32;1.40;;;0.40;;
1567;SDS011;777;47.156;8.326;2023-08-06T14:25:59;1.17;;;0.30;;
1567;SDS011;777;47.156;8.326;2023-08-06T14:28:26;1.77;;;0.32;;
1567;SDS011;777;47.156;8.326;2023-08-06T14:30:53;0.70;;;0.40;;
1567;SDS011;777;47.156;8.326;2023-08-06T14:33:21;2.55;;;1.40;;
1567;SDS011;777;47.156;8.326;2023-08-06T14:35:48;0.63;;;0.40;;
1567;SDS011;777;47.156;8.326;2023-08-06T14:38:15;1.48;;;0.90;;
1567;SDS011;777;47.156;8.326;2023-08-06T14:40:44;0.85;;;0.68;;
1567;SDS011;777;47.156;8.326;2023-08-06T14:43:11;1.23;;;0.73;;
1567;SDS011;777;47.156;8.326;2023-08-06T14:45:39;1.52;;;0.60;;
1567;SDS011;777;47.156;8.326;2023-08-06T14:48:06;0.75;;;0.40;;
1567;SDS011;777;47.156;8.326;2023-08-06T14:50:33;2.97;;;0.50;;
1567;SDS011;777;47.156;8.326;2023-08-06T14:53:00;1.63;;;0.50;;
1567;SDS011;777;47.156;8.326;2023-08-06T14:55:29;2.15;;;0.50;;
1567;SDS011;777;47.156;8.326;2023-08-06T14:57:58;1.00;;;0.50;;
1567;SDS011;777;47.156;8.326;2023-08-06T15:00:26;1.73;;;0.68;;
1567;SDS011;777;47.156;8.326;2023-08-06T15:02:53;0.80;;;0.40;;
1567;SDS011;777;47.156;8.326;2023-08-06T15:05:20;0.85;;;0.50;;
1567;SDS011;777;47.156;8.326;2023-08-06T15:07:47;1.25;;;0.40;;
1567;SDS011;777;47.156;8.326;2023-08-06T15:10:14;0.85;;;0.50;;
1567;SDS011;777;47.156;8.326;2023-08-06T15:12:41;0.65;;;0.30;;
1567;SDS011;777;47.156;8.326;2023-08-06T15:15:10;1.08;;;0.40;;
1567;SDS011;777;47.156;8.326;2023-08-06T15:17:38;0.80;;;0.50;;
1567;SDS011;777;47.156;8.326;2023-08-06T15:20:05;1.17;;;0.50;;
1567;SDS011;777;47.156;8.326;2023-08-06T15:22:33;0.95;;;0.45;;
1567;SDS011;777;47.156;8.326;2023-08-06T15:25:00;1.23;;;0.50;;
1567;SDS011;777;47.156;8.326;2023-08-06T15:27:28;1.35;;;0.60;;
1567;SDS011;777;47.156;8.326;2023-08-06T15:29:55;1.13;;;0.50;;
1567;SDS011;777;47.156;8.326;2023-08-06T15:32:23;1.20;;;0.50;;
1567;SDS011;777;47.156;8.326;2023-08-06T15:34:51;0.55;;;0.40;;